createdAt,value
2019-01-17T00:02:47.242Z,4.55
2019-01-17T00:07:55.781Z,4.54
2019-01-17T00:13:16.519Z,4.60
2019-01-17T00:18:30.848Z,4.76
2019-01-17T00:23:51.534Z,4.97
2019-01-17T00:29:12.314Z,5.08
2019-01-17T00:34:20.469Z,5.42
2019-01-17T00:39:31.942Z,5.78
2019-01-17T00:44:46.284Z,6.01
2019-01-17T00:49:54.639Z,6.21
2019-01-17T00:54:57.100Z,6.34
2019-01-17T01:00:02.301Z,6.49
2019-01-17T01:05:22.786Z,6.63
2019-01-17T01:10:25.238Z,6.70
2019-01-17T01:15:27.705Z,6.64
2019-01-17T01:20:36.221Z,6.73
2019-01-17T01:25:38.685Z,6.87
2019-01-17T01:30:56.378Z,6.96
2019-01-17T01:35:58.840Z,7.06
2019-01-17T01:41:01.297Z,7.15
2019-01-17T01:46:09.682Z,7.18
2019-01-17T01:51:24.308Z,7.22
2019-01-17T01:56:26.734Z,7.27
2019-01-17T02:01:29.188Z,7.34
2019-01-17T02:06:31.782Z,7.37
2019-01-17T02:11:34.228Z,7.38
2019-01-17T02:16:36.682Z,7.45
2019-01-17T02:21:39.116Z,7.47
2019-01-17T02:26:42.457Z,7.47
2019-01-17T02:31:43.997Z,7.52
2019-01-17T02:36:46.436Z,7.52
2019-01-17T02:41:48.895Z,7.50
2019-01-17T02:46:51.357Z,7.41
2019-01-17T02:51:53.797Z,7.41
2019-01-17T02:56:56.289Z,7.33
2019-01-17T03:01:58.739Z,7.33
2019-01-17T03:07:01.190Z,7.39
2019-01-17T03:12:03.632Z,7.49
2019-01-17T03:17:06.073Z,7.52
2019-01-17T03:22:08.524Z,7.50
2019-01-17T03:27:10.973Z,7.55
2019-01-17T03:32:13.417Z,7.66
2019-01-17T03:37:15.852Z,7.72
2019-01-17T03:42:18.295Z,7.73
2019-01-17T03:47:20.734Z,7.76
2019-01-17T03:52:23.178Z,7.76
2019-01-17T03:57:25.628Z,7.82
2019-01-17T04:02:28.075Z,7.79
2019-01-17T04:12:26.181Z,7.79
2019-01-17T04:17:28.627Z,7.83
2019-01-17T04:22:31.073Z,7.88
2019-01-17T04:27:33.528Z,7.87
2019-01-17T04:32:35.970Z,7.91
2019-01-17T04:37:38.407Z,7.89
2019-01-17T04:42:40.869Z,7.89
2019-01-17T04:47:43.305Z,7.91
2019-01-17T04:52:45.745Z,7.94
2019-01-17T04:57:48.198Z,7.94
2019-01-17T05:02:50.654Z,7.93
2019-01-17T05:07:53.110Z,7.98
2019-01-17T05:12:55.594Z,7.99
2019-01-17T05:17:58.037Z,8.00
2019-01-17T05:23:00.488Z,7.98
2019-01-17T05:28:02.934Z,7.98
2019-01-17T05:33:05.412Z,8.01
2019-01-17T05:38:07.840Z,8.02
2019-01-17T05:43:10.307Z,7.99
2019-01-17T05:48:12.752Z,7.96
2019-01-17T05:53:15.207Z,7.95
2019-01-17T05:58:17.675Z,7.97
2019-01-17T06:03:20.139Z,8.00
2019-01-17T06:08:22.575Z,8.01
2019-01-17T06:13:25.041Z,8.01
2019-01-17T06:18:27.501Z,8.02
2019-01-17T06:23:29.946Z,7.97
2019-01-17T06:28:32.401Z,7.92
2019-01-17T06:33:34.846Z,7.88
2019-01-17T06:38:37.293Z,7.89
2019-01-17T06:43:39.744Z,7.90
2019-01-17T06:48:42.188Z,7.92
2019-01-17T06:53:44.658Z,7.93
2019-01-17T06:58:47.162Z,8.01
2019-01-17T07:03:49.605Z,8.06
2019-01-17T07:08:52.083Z,8.09
2019-01-17T07:13:54.532Z,8.09
2019-01-17T07:18:56.977Z,8.08
2019-01-17T07:23:59.433Z,8.11
2019-01-17T07:29:01.889Z,8.09
2019-01-17T07:34:05.573Z,8.13
2019-01-17T07:39:08.046Z,8.12
2019-01-17T07:44:10.491Z,8.12
2019-01-17T07:49:12.949Z,8.16
2019-01-17T07:54:15.385Z,8.21
2019-01-17T07:59:17.832Z,8.23
2019-01-17T08:04:20.285Z,8.28
2019-01-17T08:09:22.744Z,8.33
2019-01-17T08:14:25.195Z,8.33
2019-01-17T08:19:27.638Z,8.33
2019-01-17T08:24:30.116Z,8.35
2019-01-17T08:29:32.570Z,8.38
2019-01-17T08:34:35.014Z,8.47
2019-01-17T08:39:37.459Z,8.48
2019-01-17T08:44:39.899Z,8.58
2019-01-17T08:49:42.352Z,8.65
2019-01-17T08:54:44.801Z,8.68
2019-01-17T08:59:47.270Z,8.66
2019-01-17T09:04:49.780Z,8.77
2019-01-17T09:09:52.194Z,8.75
2019-01-17T09:14:54.639Z,8.73
2019-01-17T09:19:57.140Z,8.77
2019-01-17T09:24:59.614Z,8.67
2019-01-17T09:30:02.093Z,8.69
2019-01-17T09:35:04.553Z,8.69
2019-01-17T09:40:07.003Z,8.70
2019-01-17T09:45:09.459Z,8.70
2019-01-17T09:50:20.673Z,8.85
2019-01-17T09:55:23.126Z,8.88
2019-01-17T10:00:28.501Z,9.06
2019-01-17T10:05:30.942Z,8.97
2019-01-17T10:10:33.418Z,9.34
2019-01-17T10:15:35.864Z,9.58
2019-01-17T10:20:56.891Z,9.28
2019-01-17T10:26:02.041Z,9.29
2019-01-17T10:31:19.476Z,10.81
2019-01-17T10:36:24.651Z,11.55
2019-01-17T10:41:38.775Z,11.56
2019-01-17T10:47:02.623Z,11.65
2019-01-17T10:52:23.015Z,10.50
2019-01-17T10:57:28.470Z,11.02
2019-01-17T11:02:33.547Z,11.42
2019-01-17T11:07:42.051Z,11.41
2019-01-17T11:12:44.509Z,10.45
2019-01-17T11:18:05.321Z,10.52
2019-01-17T11:23:19.525Z,10.56
2019-01-17T11:28:27.800Z,10.61
2019-01-17T11:33:36.302Z,11.40
2019-01-17T11:38:41.650Z,12.11
2019-01-17T11:43:44.093Z,11.02
2019-01-17T11:49:01.479Z,12.27
2019-01-17T11:54:09.650Z,11.59
2019-01-17T11:59:17.940Z,11.32
2019-01-17T12:04:31.967Z,11.74
2019-01-17T12:09:34.422Z,11.53
2019-01-17T12:14:36.878Z,11.66
2019-01-17T12:19:39.312Z,11.84
2019-01-17T12:24:41.778Z,11.47
2019-01-17T12:29:44.233Z,11.42
2019-01-17T12:34:46.704Z,10.56
2019-01-17T12:39:49.160Z,10.39
2019-01-17T12:44:51.613Z,10.68
2019-01-17T12:49:54.067Z,10.65
2019-01-17T12:54:56.705Z,10.37
2019-01-17T12:59:59.251Z,10.53
2019-01-17T13:05:01.695Z,10.60
2019-01-17T13:10:04.157Z,10.15
2019-01-17T13:15:06.625Z,10.17
2019-01-17T13:20:09.062Z,10.75
2019-01-17T13:25:11.565Z,10.07
2019-01-17T13:30:14.028Z,10.15
2019-01-17T13:35:16.485Z,9.89
2019-01-17T13:40:18.926Z,10.02
2019-01-17T13:45:21.387Z,10.49
2019-01-17T13:50:23.847Z,10.72
2019-01-17T13:55:26.327Z,10.54
2019-01-17T14:00:28.765Z,10.04
2019-01-17T14:05:31.248Z,10.48
2019-01-17T14:10:33.683Z,10.29
2019-01-17T14:15:36.134Z,9.81
2019-01-17T14:20:38.667Z,9.53
2019-01-17T14:25:41.114Z,9.31
2019-01-17T14:30:43.576Z,9.16
2019-01-17T14:35:46.037Z,9.20
2019-01-17T14:40:48.488Z,9.59
2019-01-17T14:45:50.956Z,9.38
2019-01-17T14:50:53.409Z,9.38
2019-01-17T14:55:55.851Z,9.25
2019-01-17T15:00:58.348Z,9.42
2019-01-17T15:06:00.812Z,9.48
2019-01-17T15:11:03.285Z,9.43
2019-01-17T15:16:05.723Z,9.40
2019-01-17T15:21:08.178Z,9.05
2019-01-17T15:26:10.613Z,8.96
2019-01-17T15:31:13.085Z,8.72
2019-01-17T15:36:15.532Z,8.62
2019-01-17T15:41:17.986Z,8.60
2019-01-17T15:46:20.440Z,8.56
2019-01-17T15:51:22.891Z,8.52
2019-01-17T15:56:25.339Z,8.53
2019-01-17T16:01:27.806Z,8.47
2019-01-17T16:06:30.268Z,8.43
2019-01-17T16:11:32.721Z,8.32
2019-01-17T16:16:35.160Z,8.20
2019-01-17T16:21:37.589Z,8.08
2019-01-17T16:26:40.070Z,7.95
2019-01-17T16:31:42.523Z,7.93
2019-01-17T16:36:44.951Z,7.89
2019-01-17T16:41:47.422Z,7.84
2019-01-17T16:46:49.891Z,7.85
2019-01-17T16:51:52.377Z,7.86
2019-01-17T16:56:54.850Z,7.86
2019-01-17T17:01:57.369Z,7.70
2019-01-17T17:06:59.857Z,7.61
2019-01-17T17:12:02.308Z,7.38
2019-01-17T17:17:04.800Z,7.21
2019-01-17T17:22:07.237Z,6.94
2019-01-17T17:27:09.696Z,6.70
2019-01-17T17:32:12.150Z,6.49
2019-01-17T17:37:14.620Z,6.47
2019-01-17T17:42:17.075Z,6.32
2019-01-17T17:47:19.542Z,6.17
2019-01-17T17:52:22.029Z,6.02
2019-01-17T17:57:24.505Z,5.85
2019-01-17T18:02:27.340Z,5.77
2019-01-17T18:07:29.812Z,5.72
2019-01-17T18:12:32.285Z,5.89
2019-01-17T18:17:34.754Z,6.14
2019-01-17T18:22:37.200Z,6.12
2019-01-17T18:27:39.682Z,6.13
2019-01-17T18:32:42.156Z,6.28
2019-01-17T18:37:44.793Z,6.37
2019-01-17T18:42:47.299Z,6.38
2019-01-17T18:47:49.786Z,6.43
2019-01-17T18:52:52.276Z,6.50
2019-01-17T18:57:54.736Z,6.55
2019-01-17T19:02:57.206Z,6.56
2019-01-17T19:07:59.707Z,6.59
2019-01-17T19:13:02.183Z,6.61
2019-01-17T19:18:04.636Z,6.63
2019-01-17T19:23:07.129Z,6.62
2019-01-17T19:28:09.609Z,6.61
2019-01-17T19:33:12.091Z,6.57
2019-01-17T19:38:14.570Z,6.59
2019-01-17T19:43:17.034Z,6.57
2019-01-17T19:48:19.513Z,6.55
2019-01-17T19:53:22.017Z,6.60
2019-01-17T19:58:28.944Z,6.65
2019-01-17T20:03:26.974Z,6.66
2019-01-17T20:08:29.434Z,6.64
2019-01-17T20:13:32.102Z,6.68
2019-01-17T20:18:34.596Z,6.60
2019-01-17T20:23:37.072Z,6.52
2019-01-17T20:28:39.526Z,6.56
2019-01-17T20:33:41.992Z,6.51
2019-01-17T20:38:44.479Z,6.40
2019-01-17T20:43:46.944Z,6.42
2019-01-17T20:48:49.457Z,6.44
2019-01-17T20:53:51.930Z,6.33
2019-01-17T20:58:54.408Z,6.41
2019-01-17T21:03:56.879Z,6.08
2019-01-17T21:08:59.331Z,5.88
2019-01-17T21:14:01.800Z,5.78
2019-01-17T21:19:04.266Z,5.61
2019-01-17T21:24:06.756Z,5.70
2019-01-17T21:29:09.235Z,5.73
2019-01-17T21:34:11.678Z,5.54
2019-01-17T21:39:14.186Z,5.38
2019-01-17T21:44:16.654Z,5.28
2019-01-17T21:49:19.109Z,5.34
2019-01-17T21:54:21.564Z,5.52
2019-01-17T21:59:24.028Z,5.53
2019-01-17T22:04:26.501Z,5.37
2019-01-17T22:09:28.974Z,5.20
2019-01-17T22:14:31.432Z,5.12
2019-01-17T22:19:33.893Z,5.28
2019-01-17T22:24:36.382Z,5.38
2019-01-17T22:29:38.821Z,5.24
2019-01-17T22:34:41.291Z,5.34
2019-01-17T22:39:43.747Z,5.40
2019-01-17T22:44:46.219Z,5.43
2019-01-17T22:49:48.722Z,5.48
2019-01-17T22:54:51.241Z,5.48
2019-01-17T22:59:53.619Z,5.53
2019-01-17T23:04:56.089Z,5.48
2019-01-17T23:09:58.546Z,5.42
2019-01-17T23:15:02.458Z,5.47
2019-01-17T23:20:03.475Z,5.45
2019-01-17T23:25:05.924Z,5.47
2019-01-17T23:30:11.410Z,5.49
2019-01-17T23:35:13.858Z,5.48
2019-01-17T23:40:16.320Z,5.49
2019-01-17T23:45:18.772Z,5.52
2019-01-17T23:50:21.230Z,5.48
2019-01-17T23:55:23.681Z,5.47
